Freeburg, Illinois
Current Conditions -  °F | °C
As of 4:23 PM on Thursday 18 Dec 2014 (Local Time) from KBLV Reporting Station
Overcast Overcast  
Wind Chill: 34°   Ceiling: 1800
Heat Index: 34°   Visibility: 10mi
Dew Point: 28°   Wind: 2mph
Humidity: 81%   Direction: 70°ENE
Pressure: 30.24"   Gusts: NA
Location:  38.43°N, 89.91°W
Report Text: KBLV 182223Z AUTO 07002KT 10SM BKN018 OVC035 01/M02 A3024 RMK AO2 CIG 017V035 BKN V SCT
Loading
Personal Weather Stations






























Interactive Weather Map New forecast layout! Learn more

10-Day Weather Forecast

Advertisements
Track Severe Weather on mobile